MSC Sinfonia — H8XH — position and weather

sailwx.info

Track history (hours):
 
Tides and Currents Weather Stations Pressure Air Temp Water Temp Dewpoint Dewpoint Depression Visibility Wind Speed Wind Dir Waves Ship Positions

MSC Sinfonia

Last reported at 2015-Aug-04 21:33 UTC. Time now 2015-Aug-04 22:03 UTC.
Position N 59°28' E 020°35'.

Length 251 m; draft 6.8 m.

Type: Passenger vessel. MMSI: 356715971.

Date/timePositionNaut miles runAvg speedWind from/ knotsBaromVisibWave heightAir tempDewpointWater temp
2015-Aug-04 21:33N 59°28' E 020°35'1616.5
2015-Aug-04 20:34N 59°31' E 020°03'1716.9
2015-Aug-04 19:33N 59°45' E 019°44'5410.1
2015-Aug-04 14:13N 59°21' E 018°08'0 0.3
2015-Aug-04 13:27N 59°21' E 018°08'0 0.0
2015-Aug-04 12:33N 59°21' E 018°08'0 0.0
2015-Aug-04 11:33N 59°21' E 018°08'0 0.0
2015-Aug-04 08:27N 59°21' E 018°08'0 0.0
2015-Aug-04 07:33N 59°21' E 018°08'0 0.0
2015-Aug-04 06:27N 59°21' E 018°08'5 4.2
2015-Aug-04 05:11N 59°23' E 018°17'5 4.8
2015-Aug-04 04:12N 59°26' E 018°23'1010.5
2015-Aug-04 03:17N 59°33' E 018°36'811.7
2015-Aug-04 02:33N 59°38' E 018°51'1514.1
2015-Aug-04 01:28N 59°45' E 019°17'1011.0
2015-Aug-04 00:33N 59°48' E 019°37'13811.5
2015-Aug-03 12:33N 57°39' E 018°01'1514.7
2015-Aug-03 11:32N 57°26' E 017°48'1515.0
2015-Aug-03 10:33N 57°12' E 017°37'1515.1
2015-Aug-03 09:33N 56°58' E 017°27'8415.3
2015-Aug-03 04:04N 55°49' E 016°01'917.1
2015-Aug-03 03:33N 55°44' E 015°48'1717.2
2015-Aug-03 02:33N 55°37' E 015°20'1717.3
2015-Aug-03 01:33N 55°29' E 014°53'1717.2
2015-Aug-03 00:33N 55°18' E 014°30'1817.6
2015-Aug-02 23:34N 55°04' E 014°12'1717.1
2015-Aug-02 22:33N 54°56' E 013°45'1817.5
2015-Aug-02 21:33N 54°51' E 013°15'1717.6
2015-Aug-02 20:33N 54°46' E 012°46'1917.0
2015-Aug-02 19:26N 54°35' E 012°19'1516.8
2015-Aug-02 18:33N 54°23' E 012°07'12 8.9
2015-Aug-02 17:13N 54°11' E 012°06'0 0.0
2015-Aug-02 16:28N 54°11' E 012°06'0 0.0
2015-Aug-02 15:31N 54°11' E 012°06'0 0.0
2015-Aug-02 14:28N 54°11' E 012°06'0 0.0
2015-Aug-02 13:22N 54°11' E 012°06'0 0.0
2015-Aug-02 12:31N 54°11' E 012°06'0 0.0
2015-Aug-02 11:28N 54°11' E 012°06'0 0.0
2015-Aug-02 10:28N 54°11' E 012°06'0 0.0
2015-Aug-02 08:22N 54°11' E 012°06'0 0.0
2015-Aug-02 07:22N 54°11' E 012°06'0 0.0
2015-Aug-02 06:31N 54°11' E 012°06'0 0.0
2015-Aug-02 05:33N 54°11' E 012°06'3 3.1
2015-Aug-02 04:32N 54°13' E 012°04'9 8.9
2015-Aug-02 03:33N 54°21' E 011°56'8 7.7
2015-Aug-02 02:33N 54°26' E 012°06'13 9.5
2015-Aug-02 01:14N 54°38' E 012°16'710.1
2015-Aug-02 00:33N 54°43' E 012°23'1010.2
2015-Aug-01 23:34N 54°51' E 012°34'10 9.7
2015-Aug-01 22:34N 55°00' E 012°39'1010.1
2015-Aug-01 21:34N 55°10' E 012°39'10 9.9
2015-Aug-01 20:34N 55°20' E 012°39'10 9.8
2015-Aug-01 19:34N 55°30' E 012°41'1110.7
2015-Aug-01 18:34N 55°41' E 012°41'3 3.1
2015-Aug-01 17:33N 55°43' E 012°38'0 0.0
2015-Aug-01 16:33N 55°43' E 012°38'0 0.0
2015-Aug-01 15:33N 55°43' E 012°38'0 0.0
2015-Aug-01 14:28N 55°43' E 012°38'0 0.0
2015-Aug-01 13:33N 55°43' E 012°38'0 0.0
2015-Aug-01 12:33N 55°43' E 012°38'0 0.0
2015-Aug-01 11:33N 55°43' E 012°38'0 0.0
2015-Aug-01 10:33N 55°43' E 012°38'0 0.0
2015-Aug-01 09:33N 55°43' E 012°38'0 0.0
2015-Aug-01 08:33N 55°43' E 012°38'0 0.0
2015-Aug-01 07:33N 55°43' E 012°38'0 0.1
2015-Aug-01 06:34N 55°43' E 012°38'8 7.8
2015-Aug-01 05:33N 55°50' E 012°44'1110.6
2015-Aug-01 04:33N 56°00' E 012°40'1111.3
2015-Aug-01 03:33N 56°09' E 012°26'1212.1
2015-Aug-01 02:33N 56°15' E 012°08'2613.1
2015-Aug-01 00:33N 56°40' E 011°53'1413.9
2015-Jul-31 23:33N 56°53' E 011°45'1413.5
2015-Jul-31 22:33N 57°06' E 011°37'1414.0
2015-Jul-31 21:33N 57°19' E 011°29'1413.6
2015-Jul-31 20:33N 57°31' E 011°17'1414.3
2015-Jul-31 19:33N 57°41' E 010°57'1717.0
2015-Jul-31 18:33N 57°47' E 010°27'2018.6
2015-Jul-31 17:31N 57°46' E 009°50'1818.3
2015-Jul-31 16:31N 57°44' E 009°17'  
2015-Jul-27 21:14N 58°38' E 004°52'1217.5
2015-Jul-27 20:33N 58°29' E 005°07'1917.6
2015-Jul-27 19:29N 58°16' E 005°32'1818.0
2015-Jul-27 18:30N 58°04' E 005°58'14117.6
2015-Jul-27 10:27N 57°49' E 010°23'1516.8
2015-Jul-27 09:33N 57°46' E 010°51'1817.9
2015-Jul-27 08:34N 57°34' E 011°15'1817.8
2015-Jul-27 07:34N 57°19' E 011°32'1918.5
2015-Jul-27 06:34N 57°01' E 011°43'1817.9
2015-Jul-27 05:33N 56°44' E 011°53'13516.1
2015-Jul-26 21:09N 54°34' E 010°46'1017.1
2015-Jul-26 20:34N 54°32' E 010°30'1413.6
2015-Jul-26 19:33N 54°23' E 010°12'4 4.0
2015-Jul-26 18:31N 54°20' E 010°09'0 0.0
2015-Jul-26 17:31N 54°20' E 010°09'0 0.0
2015-Jul-26 16:31N 54°20' E 010°09'0 0.0
2015-Jul-26 15:31N 54°20' E 010°09'0 0.0
2015-Jul-26 14:31N 54°20' E 010°09'0 0.0
2015-Jul-26 13:31N 54°20' E 010°09'0 0.0
2015-Jul-26 12:31N 54°20' E 010°09'0 0.0
2015-Jul-26 11:31N 54°20' E 010°09'0 0.0
2015-Jul-26 10:31N 54°20' E 010°09'0 0.0
2015-Jul-26 09:31N 54°20' E 010°09'0 0.0
2015-Jul-26 08:31N 54°20' E 010°09'0 0.0
2015-Jul-26 07:31N 54°20' E 010°09'0 0.0
2015-Jul-26 06:31N 54°20' E 010°09'0 0.0
2015-Jul-26 05:33N 54°20' E 010°09'4 3.8
2015-Jul-26 04:33N 54°23' E 010°12'1110.8
2015-Jul-26 03:34N 54°31' E 010°23'1313.2
2015-Jul-26 02:33N 54°35' E 010°45'1514.8
2015-Jul-26 01:33N 54°36' E 011°10'1615.6
2015-Jul-26 00:33N 54°29' E 011°35'1616.4
2015-Jul-25 23:34N 54°26' E 012°02'  
Track history (hours):
 
Tides and Currents Weather Stations Pressure Air Temp Water Temp Dewpoint Dewpoint Depression Visibility Wind Speed Wind Dir Waves Ship Positions

MSC Sinfonia

Last reported at 2015-Aug-04 21:33 UTC. Time now 2015-Aug-04 22:03 UTC.
Position N 59°28' E 020°35'.

Length 251 m; draft 6.8 m.

Type: Passenger vessel. MMSI: 356715971.

Date/timePositionNaut miles runAvg speedWind from/ knotsBaromVisibWave heightAir tempDewpointWater temp
2015-Aug-04 21:33N 59°28' E 020°35'1616.5
2015-Aug-04 20:34N 59°31' E 020°03'1716.9
2015-Aug-04 19:33N 59°45' E 019°44'5410.1
2015-Aug-04 14:13N 59°21' E 018°08'0 0.3
2015-Aug-04 13:27N 59°21' E 018°08'0 0.0
2015-Aug-04 12:33N 59°21' E 018°08'0 0.0
2015-Aug-04 11:33N 59°21' E 018°08'0 0.0
2015-Aug-04 08:27N 59°21' E 018°08'0 0.0
2015-Aug-04 07:33N 59°21' E 018°08'0 0.0
2015-Aug-04 06:27N 59°21' E 018°08'5 4.2
2015-Aug-04 05:11N 59°23' E 018°17'5 4.8
2015-Aug-04 04:12N 59°26' E 018°23'1010.5
2015-Aug-04 03:17N 59°33' E 018°36'811.7
2015-Aug-04 02:33N 59°38' E 018°51'1514.1
2015-Aug-04 01:28N 59°45' E 019°17'1011.0
2015-Aug-04 00:33N 59°48' E 019°37'13811.5
2015-Aug-03 12:33N 57°39' E 018°01'1514.7
2015-Aug-03 11:32N 57°26' E 017°48'1515.0
2015-Aug-03 10:33N 57°12' E 017°37'1515.1
2015-Aug-03 09:33N 56°58' E 017°27'8415.3
2015-Aug-03 04:04N 55°49' E 016°01'917.1
2015-Aug-03 03:33N 55°44' E 015°48'1717.2
2015-Aug-03 02:33N 55°37' E 015°20'1717.3
2015-Aug-03 01:33N 55°29' E 014°53'1717.2
2015-Aug-03 00:33N 55°18' E 014°30'1817.6
2015-Aug-02 23:34N 55°04' E 014°12'1717.1
2015-Aug-02 22:33N 54°56' E 013°45'1817.5
2015-Aug-02 21:33N 54°51' E 013°15'1717.6
2015-Aug-02 20:33N 54°46' E 012°46'1917.0
2015-Aug-02 19:26N 54°35' E 012°19'1516.8
2015-Aug-02 18:33N 54°23' E 012°07'12 8.9
2015-Aug-02 17:13N 54°11' E 012°06'0 0.0
2015-Aug-02 16:28N 54°11' E 012°06'0 0.0
2015-Aug-02 15:31N 54°11' E 012°06'0 0.0
2015-Aug-02 14:28N 54°11' E 012°06'0 0.0
2015-Aug-02 13:22N 54°11' E 012°06'0 0.0
2015-Aug-02 12:31N 54°11' E 012°06'0 0.0
2015-Aug-02 11:28N 54°11' E 012°06'0 0.0
2015-Aug-02 10:28N 54°11' E 012°06'0 0.0
2015-Aug-02 08:22N 54°11' E 012°06'0 0.0
2015-Aug-02 07:22N 54°11' E 012°06'0 0.0
2015-Aug-02 06:31N 54°11' E 012°06'0 0.0
2015-Aug-02 05:33N 54°11' E 012°06'3 3.1
2015-Aug-02 04:32N 54°13' E 012°04'9 8.9
2015-Aug-02 03:33N 54°21' E 011°56'8 7.7
2015-Aug-02 02:33N 54°26' E 012°06'13 9.5
2015-Aug-02 01:14N 54°38' E 012°16'710.1
2015-Aug-02 00:33N 54°43' E 012°23'1010.2
2015-Aug-01 23:34N 54°51' E 012°34'10 9.7
2015-Aug-01 22:34N 55°00' E 012°39'1010.1
2015-Aug-01 21:34N 55°10' E 012°39'10 9.9
2015-Aug-01 20:34N 55°20' E 012°39'10 9.8
2015-Aug-01 19:34N 55°30' E 012°41'1110.7
2015-Aug-01 18:34N 55°41' E 012°41'3 3.1
2015-Aug-01 17:33N 55°43' E 012°38'0 0.0
2015-Aug-01 16:33N 55°43' E 012°38'0 0.0
2015-Aug-01 15:33N 55°43' E 012°38'0 0.0
2015-Aug-01 14:28N 55°43' E 012°38'0 0.0
2015-Aug-01 13:33N 55°43' E 012°38'0 0.0
2015-Aug-01 12:33N 55°43' E 012°38'0 0.0
2015-Aug-01 11:33N 55°43' E 012°38'0 0.0
2015-Aug-01 10:33N 55°43' E 012°38'0 0.0
2015-Aug-01 09:33N 55°43' E 012°38'0 0.0
2015-Aug-01 08:33N 55°43' E 012°38'0 0.0
2015-Aug-01 07:33N 55°43' E 012°38'0 0.1
2015-Aug-01 06:34N 55°43' E 012°38'8 7.8
2015-Aug-01 05:33N 55°50' E 012°44'1110.6
2015-Aug-01 04:33N 56°00' E 012°40'1111.3
2015-Aug-01 03:33N 56°09' E 012°26'1212.1
2015-Aug-01 02:33N 56°15' E 012°08'2613.1
2015-Aug-01 00:33N 56°40' E 011°53'1413.9
2015-Jul-31 23:33N 56°53' E 011°45'1413.5
2015-Jul-31 22:33N 57°06' E 011°37'1414.0
2015-Jul-31 21:33N 57°19' E 011°29'1413.6
2015-Jul-31 20:33N 57°31' E 011°17'1414.3
2015-Jul-31 19:33N 57°41' E 010°57'1717.0
2015-Jul-31 18:33N 57°47' E 010°27'2018.6
2015-Jul-31 17:31N 57°46' E 009°50'1818.3
2015-Jul-31 16:31N 57°44' E 009°17'  
2015-Jul-27 21:14N 58°38' E 004°52'1217.5
2015-Jul-27 20:33N 58°29' E 005°07'1917.6
2015-Jul-27 19:29N 58°16' E 005°32'1818.0
2015-Jul-27 18:30N 58°04' E 005°58'14117.6
2015-Jul-27 10:27N 57°49' E 010°23'1516.8
2015-Jul-27 09:33N 57°46' E 010°51'1817.9
2015-Jul-27 08:34N 57°34' E 011°15'1817.8
2015-Jul-27 07:34N 57°19' E 011°32'1918.5
2015-Jul-27 06:34N 57°01' E 011°43'1817.9
2015-Jul-27 05:33N 56°44' E 011°53'13516.1
2015-Jul-26 21:09N 54°34' E 010°46'1017.1
2015-Jul-26 20:34N 54°32' E 010°30'1413.6
2015-Jul-26 19:33N 54°23' E 010°12'4 4.0
2015-Jul-26 18:31N 54°20' E 010°09'0 0.0
2015-Jul-26 17:31N 54°20' E 010°09'0 0.0
2015-Jul-26 16:31N 54°20' E 010°09'0 0.0
2015-Jul-26 15:31N 54°20' E 010°09'0 0.0
2015-Jul-26 14:31N 54°20' E 010°09'0 0.0
2015-Jul-26 13:31N 54°20' E 010°09'0 0.0
2015-Jul-26 12:31N 54°20' E 010°09'0 0.0
2015-Jul-26 11:31N 54°20' E 010°09'0 0.0
2015-Jul-26 10:31N 54°20' E 010°09'0 0.0
2015-Jul-26 09:31N 54°20' E 010°09'0 0.0
2015-Jul-26 08:31N 54°20' E 010°09'0 0.0
2015-Jul-26 07:31N 54°20' E 010°09'0 0.0
2015-Jul-26 06:31N 54°20' E 010°09'0 0.0
2015-Jul-26 05:33N 54°20' E 010°09'4 3.8
2015-Jul-26 04:33N 54°23' E 010°12'1110.8
2015-Jul-26 03:34N 54°31' E 010°23'1313.2
2015-Jul-26 02:33N 54°35' E 010°45'1514.8
2015-Jul-26 01:33N 54°36' E 011°10'1615.6
2015-Jul-26 00:33N 54°29' E 011°35'1616.4
2015-Jul-25 23:34N 54°26' E 012°02'  

Dump ship's entire track history